South Harpswell, Maine
Current Conditions -  °F | °C
As of 6:53 AM on Monday 20 Oct 2014 (Local Time) from KIWI Reporting Station
Clear Clear  
Wind Chill: 36°   Ceiling: Unl
Heat Index: 36°   Visibility: 10mi
Dew Point: 27°   Wind: 0mph
Humidity: 70%   Direction: NA
Pressure: 29.96"   Gusts: NA
Location:  43.7958°N, 69.9869°W
Report Text: KIWI 201053Z AUTO 00000KT 10SM CLR 02/M03 A2996 RMK AO2 SLP145 T00221028
Loading
Personal Weather Stations






























Interactive Weather Map
Tropical Storm Tracking
New forecast layout! Learn more

10-Day Weather Forecast

Advertisements
Track Severe Weather on mobile